createdAt,value
2019-04-23T00:00:03.762Z,102147.60
2019-04-23T00:02:39.318Z,102152.48
2019-04-23T00:05:27.221Z,102148.09
2019-04-23T00:07:48.658Z,102148.08
2019-04-23T00:10:23.137Z,102148.47
2019-04-23T00:12:49.517Z,102150.61
2019-04-23T00:15:21.576Z,102148.06
2019-04-23T00:17:58.426Z,102150.30
2019-04-23T00:20:27.237Z,102151.23
2019-04-23T00:23:06.171Z,102149.92
2019-04-23T00:28:22.994Z,102151.25
2019-04-23T00:33:37.315Z,102145.11
2019-04-23T00:35:56.602Z,102150.84
2019-04-23T00:38:33.903Z,102151.24
2019-04-23T00:41:02.889Z,102158.34
2019-04-23T00:43:40.185Z,102158.80
2019-04-23T00:45:59.231Z,102157.91
2019-04-23T00:48:45.388Z,102162.77
2019-04-23T00:51:02.281Z,102163.22
2019-04-23T00:53:40.154Z,102162.79
2019-04-23T00:56:32.471Z,102164.12
2019-04-23T00:58:47.681Z,102164.56
2019-04-23T01:01:18.297Z,102163.66
2019-04-23T01:03:53.035Z,102161.05
2019-04-23T01:08:55.090Z,102157.94
2019-04-23T01:11:23.969Z,102159.27
2019-04-23T01:13:52.973Z,102160.61
2019-04-23T01:16:33.395Z,102155.77
2019-04-23T01:19:12.139Z,102157.03
2019-04-23T01:21:32.532Z,102159.66
2019-04-23T01:24:19.258Z,102157.45
2019-04-23T01:30:08.403Z,102151.34
2019-04-23T01:32:38.147Z,102160.16
2019-04-23T01:35:20.220Z,102165.91
2019-04-23T01:40:12.102Z,102167.22
2019-04-23T01:42:44.527Z,102168.11
2019-04-23T01:47:55.153Z,102176.04
2019-04-23T01:50:27.742Z,102171.64
2019-04-23T01:53:00.716Z,102172.50
2019-04-23T01:58:23.914Z,102181.74
2019-04-23T02:00:41.045Z,102177.34
2019-04-23T02:03:09.314Z,102181.30
2019-04-23T02:05:41.585Z,102181.30
2019-04-23T02:08:14.090Z,102180.86
2019-04-23T02:10:51.292Z,102183.48
2019-04-23T02:13:24.895Z,102190.08
2019-04-23T02:18:25.358Z,102189.20
2019-04-23T02:21:00.713Z,102189.21
2019-04-23T02:26:04.031Z,102186.59
2019-04-23T02:31:37.481Z,102190.98
2019-04-23T02:36:11.331Z,102191.88
2019-04-23T02:38:56.285Z,102201.99
2019-04-23T02:44:09.110Z,102198.05
2019-04-23T02:46:33.536Z,102199.36
2019-04-23T02:49:07.122Z,102202.90
2019-04-23T02:51:35.320Z,102202.87
2019-04-23T02:54:17.826Z,102205.09
2019-04-23T02:56:47.009Z,102209.50
2019-04-23T02:59:21.804Z,102209.51
2019-04-23T03:01:46.456Z,102211.26
2019-04-23T03:06:56.070Z,102213.89
2019-04-23T03:09:27.890Z,102214.78
2019-04-23T03:11:57.078Z,102218.31
2019-04-23T03:14:23.243Z,102220.96
2019-04-23T03:17:09.659Z,102223.16
2019-04-23T03:20:01.586Z,102227.11
2019-04-23T03:22:46.055Z,102230.20
2019-04-23T03:27:56.081Z,102228.77
2019-04-23T03:36:18.407Z,102233.73
2019-04-23T03:38:13.328Z,102232.63
2019-04-23T03:40:36.977Z,102240.98
2019-04-23T03:43:21.444Z,102233.27
2019-04-23T03:56:05.631Z,102230.48
2019-04-23T03:58:34.757Z,102230.45
2019-04-23T04:00:58.403Z,102229.76
2019-04-23T04:04:01.686Z,102233.02
2019-04-23T04:06:11.555Z,102236.02
2019-04-23T04:11:10.903Z,102244.00
2019-04-23T04:13:42.924Z,102239.05
2019-04-23T04:16:07.521Z,102244.20
2019-04-23T04:18:44.167Z,102241.17
2019-04-23T04:21:29.870Z,102241.92
2019-04-23T04:24:05.440Z,102240.59
2019-04-23T04:26:29.012Z,102243.70
2019-04-23T04:31:37.488Z,102241.14
2019-04-23T04:36:32.669Z,102244.83
2019-04-23T04:41:32.469Z,102240.02
2019-04-23T04:44:21.820Z,102236.42
2019-04-23T04:46:39.669Z,102228.95
2019-04-23T04:51:51.561Z,102235.87
2019-04-23T04:56:58.166Z,102236.44
2019-04-23T04:59:17.681Z,102229.76
2019-04-23T05:07:03.523Z,102230.63
2019-04-23T05:09:38.091Z,102233.19
2019-04-23T05:12:01.611Z,102234.76
2019-04-23T05:14:35.507Z,102235.50
2019-04-23T05:17:15.647Z,102226.59
2019-04-23T05:22:07.050Z,102236.02
2019-04-23T05:24:36.662Z,102233.55
2019-04-23T05:27:11.071Z,102224.89
2019-04-23T05:29:42.712Z,102229.77
2019-04-23T05:32:14.874Z,102225.52
2019-04-23T05:34:44.884Z,102233.40
2019-04-23T05:37:23.333Z,102233.85
2019-04-23T05:39:49.343Z,102238.21
2019-04-23T05:42:19.588Z,102233.76
2019-04-23T05:47:29.290Z,102236.48
2019-04-23T05:50:00.429Z,102236.29
2019-04-23T05:52:33.722Z,102231.16
2019-04-23T05:55:01.592Z,102242.48
2019-04-23T05:57:34.671Z,102248.80
2019-04-23T06:00:08.958Z,102241.74
2019-04-23T06:02:45.832Z,102242.93
2019-04-23T06:05:13.093Z,102249.22
2019-04-23T06:07:43.902Z,102253.84
2019-04-23T06:10:13.317Z,102250.11
2019-04-23T06:12:45.298Z,102251.77
2019-04-23T06:15:22.000Z,102247.99
2019-04-23T06:17:55.907Z,102242.56
2019-04-23T06:20:28.470Z,102249.00
2019-04-23T06:23:04.080Z,102249.50
2019-04-23T06:25:45.596Z,102245.02
2019-04-23T06:28:02.080Z,102256.43
2019-04-23T06:30:40.628Z,102257.02
2019-04-23T06:33:14.642Z,102254.28
2019-04-23T06:35:41.195Z,102254.03
2019-04-23T06:38:39.137Z,102262.36
2019-04-23T06:40:47.143Z,102261.42
2019-04-23T06:43:22.784Z,102253.76
2019-04-23T06:45:49.519Z,102261.74
2019-04-23T06:53:27.316Z,102251.73
2019-04-23T06:56:04.003Z,102261.84
2019-04-23T07:01:04.918Z,102264.44
2019-04-23T07:03:48.580Z,102268.67
2019-04-23T07:09:05.187Z,102269.47
2019-04-23T07:11:23.875Z,102264.50
2019-04-23T07:13:53.487Z,102268.00
2019-04-23T07:16:17.923Z,102268.33
2019-04-23T07:26:33.283Z,102267.63
2019-04-23T07:29:00.557Z,102268.13
2019-04-23T07:31:37.720Z,102272.69
2019-04-23T07:36:41.008Z,102270.13
2019-04-23T07:39:23.335Z,102278.38
2019-04-23T07:42:08.101Z,102278.84
2019-04-23T07:44:46.978Z,102280.34
2019-04-23T07:49:57.104Z,102272.38
2019-04-23T07:52:23.942Z,102272.43
2019-04-23T07:54:54.623Z,102284.23
2019-04-23T08:00:07.491Z,102275.61
2019-04-23T08:02:31.763Z,102272.81
2019-04-23T08:05:11.678Z,102275.96
2019-04-23T08:07:37.527Z,102279.71
2019-04-23T08:10:10.142Z,102285.22
2019-04-23T08:12:40.553Z,102278.30
2019-04-23T08:15:15.124Z,102279.44
2019-04-23T08:17:42.706Z,102282.52
2019-04-23T08:20:11.272Z,102285.06
2019-04-23T08:22:53.769Z,102280.80
2019-04-23T08:25:55.547Z,102286.58
2019-04-23T08:28:24.044Z,102284.37
2019-04-23T08:30:53.774Z,102283.76
2019-04-23T08:33:23.299Z,102279.99
2019-04-23T08:36:09.423Z,102285.99
2019-04-23T08:38:36.658Z,102281.80
2019-04-23T08:41:22.899Z,102291.52
2019-04-23T08:44:01.075Z,102282.41
2019-04-23T08:46:43.313Z,102280.09
2019-04-23T08:49:03.338Z,102283.95
2019-04-23T08:54:21.892Z,102280.27
2019-04-23T08:56:47.934Z,102287.79
2019-04-23T08:59:24.951Z,102285.72
2019-04-23T09:02:07.232Z,102281.97
2019-04-23T09:04:26.983Z,102282.69
2019-04-23T09:07:07.021Z,102278.72
2019-04-23T09:09:30.817Z,102282.43
2019-04-23T09:12:04.469Z,102273.03
2019-04-23T09:14:32.309Z,102273.03
2019-04-23T09:17:13.126Z,102269.55
2019-04-23T09:19:53.108Z,102269.88
2019-04-23T09:22:20.878Z,102267.05
2019-04-23T09:24:47.357Z,102273.48
2019-04-23T09:32:36.103Z,102273.02
2019-04-23T09:35:08.668Z,102267.72
2019-04-23T09:37:48.911Z,102267.80
2019-04-23T09:40:51.549Z,102260.63
2019-04-23T09:48:18.113Z,102264.06
2019-04-23T09:50:41.978Z,102267.48
2019-04-23T09:53:26.899Z,102262.71
2019-04-23T09:55:41.763Z,102261.51
2019-04-23T09:58:18.289Z,102257.45
2019-04-23T10:00:51.468Z,102265.63
2019-04-23T10:03:16.100Z,102264.75
2019-04-23T10:05:46.843Z,102264.74
2019-04-23T10:08:16.022Z,102261.19
2019-04-23T10:10:40.475Z,102257.06
2019-04-23T10:13:13.714Z,102262.03
2019-04-23T10:15:47.751Z,102257.83
2019-04-23T10:18:18.328Z,102260.73
2019-04-23T10:20:49.172Z,102268.28
2019-04-23T10:23:21.269Z,102265.55
2019-04-23T10:25:53.978Z,102265.75
2019-04-23T10:28:38.044Z,102261.77
2019-04-23T10:31:12.502Z,102259.93
2019-04-23T10:33:45.845Z,102252.36
2019-04-23T10:36:21.123Z,102253.27
2019-04-23T10:38:55.877Z,102250.95
2019-04-23T10:41:26.001Z,102252.75
2019-04-23T10:44:04.989Z,102250.30
2019-04-23T10:47:04.184Z,102255.44
2019-04-23T10:49:53.237Z,102254.68
2019-04-23T10:52:28.038Z,102254.41
2019-04-23T10:55:14.587Z,102253.16
2019-04-23T10:57:26.507Z,102251.08
2019-04-23T10:59:53.564Z,102245.23
2019-04-23T11:05:20.503Z,102249.81
2019-04-23T11:07:34.013Z,102246.19
2019-04-23T11:13:25.781Z,102248.28
2019-04-23T11:15:53.765Z,102249.16
2019-04-23T11:18:02.838Z,102251.58
2019-04-23T11:23:04.637Z,102250.48
2019-04-23T11:25:44.274Z,102251.81
2019-04-23T11:28:26.056Z,102247.53
2019-04-23T11:30:45.131Z,102249.41
2019-04-23T11:33:34.111Z,102247.93
2019-04-23T11:36:18.936Z,102238.97
2019-04-23T11:41:17.293Z,102247.03
2019-04-23T11:46:33.911Z,102245.11
2019-04-23T11:48:59.607Z,102241.02
2019-04-23T11:51:46.036Z,102234.19
2019-04-23T11:58:57.734Z,102229.46
2019-04-23T12:07:00.654Z,102230.25
2019-04-23T12:09:50.255Z,102226.89
2019-04-23T12:14:51.065Z,102222.75
2019-04-23T12:17:26.422Z,102228.18
2019-04-23T12:20:05.356Z,102221.16
2019-04-23T12:22:44.613Z,102214.34
2019-04-23T12:25:19.638Z,102220.86
2019-04-23T12:27:39.360Z,102221.02
2019-04-23T12:32:56.585Z,102216.89
2019-04-23T12:35:25.723Z,102210.46
2019-04-23T12:38:01.360Z,102208.00
2019-04-23T12:40:36.690Z,102216.74
2019-04-23T12:43:13.292Z,102208.70
2019-04-23T12:48:15.618Z,102199.91
2019-04-23T12:53:20.434Z,102203.08
2019-04-23T12:55:43.689Z,102199.12
2019-04-23T12:58:21.973Z,102203.34
2019-04-23T13:00:52.871Z,102202.92
2019-04-23T13:03:25.180Z,102192.60
2019-04-23T13:05:51.261Z,102197.14
2019-04-23T13:08:39.993Z,102187.41
2019-04-23T13:11:01.279Z,102187.62
2019-04-23T13:13:44.401Z,102182.89
2019-04-23T13:16:12.257Z,102179.34
2019-04-23T13:18:41.241Z,102173.08
2019-04-23T13:21:22.237Z,102174.56
2019-04-23T13:23:41.001Z,102175.58
2019-04-23T13:26:30.832Z,102177.01
2019-04-23T13:28:45.828Z,102175.22
2019-04-23T13:31:18.103Z,102175.52
2019-04-23T13:33:52.181Z,102177.11
2019-04-23T13:36:32.762Z,102178.20
2019-04-23T13:38:58.431Z,102184.88
2019-04-23T13:41:37.532Z,102181.71
2019-04-23T13:44:06.081Z,102179.95
2019-04-23T13:49:12.448Z,102178.77
2019-04-23T13:51:44.786Z,102178.75
2019-04-23T13:57:25.734Z,102173.30
2019-04-23T13:59:35.173Z,102169.42
2019-04-23T14:01:59.742Z,102172.98
2019-04-23T14:04:38.871Z,102170.30
2019-04-23T14:07:05.866Z,102171.09
2019-04-23T14:09:45.958Z,102163.94
2019-04-23T14:12:11.262Z,102171.41
2019-04-23T14:14:56.572Z,102161.91
2019-04-23T14:17:38.040Z,102168.13
2019-04-23T14:20:02.989Z,102157.44
2019-04-23T14:22:56.631Z,102165.52
2019-04-23T14:27:39.919Z,102159.66
2019-04-23T14:30:13.282Z,102153.59
2019-04-23T14:38:11.333Z,102149.63
2019-04-23T14:40:29.616Z,102147.55
2019-04-23T14:46:35.314Z,102151.75
2019-04-23T14:48:38.163Z,102143.94
2019-04-23T14:51:24.185Z,102155.19
2019-04-23T14:53:43.853Z,102148.75
2019-04-23T14:56:16.644Z,102149.47
2019-04-23T14:58:57.561Z,102153.20
2019-04-23T15:03:49.133Z,102148.39
2019-04-23T15:06:36.511Z,102146.93
2019-04-23T15:09:06.319Z,102146.78
2019-04-23T15:11:35.669Z,102146.37
2019-04-23T15:14:03.533Z,102149.14
2019-04-23T15:16:39.618Z,102136.85
2019-04-23T15:22:04.818Z,102138.14
2019-04-23T15:24:25.955Z,102135.51
2019-04-23T15:29:22.786Z,102132.19
2019-04-23T15:32:14.428Z,102127.82
2019-04-23T15:34:57.541Z,102126.66
2019-04-23T15:37:20.430Z,102117.92
2019-04-23T15:39:50.514Z,102125.67
2019-04-23T15:42:16.793Z,102122.35
2019-04-23T15:44:48.729Z,102127.06
2019-04-23T15:47:28.509Z,102126.82
2019-04-23T15:50:06.970Z,102127.67
2019-04-23T15:52:29.778Z,102124.09
2019-04-23T15:58:02.886Z,102125.13
2019-04-23T16:02:10.986Z,102131.78
2019-04-23T16:04:43.934Z,102133.88
2019-04-23T16:07:32.524Z,102135.97
2019-04-23T16:10:14.507Z,102142.26
2019-04-23T16:12:51.914Z,102140.25
2019-04-23T16:15:21.994Z,102139.84
2019-04-23T16:18:07.889Z,102142.20
2019-04-23T16:20:46.677Z,102150.28
2019-04-23T16:23:16.052Z,102151.64
2019-04-23T16:25:43.536Z,102144.41
2019-04-23T16:28:24.188Z,102145.16
2019-04-23T16:30:59.475Z,102150.91
2019-04-23T16:33:22.109Z,102143.73
2019-04-23T16:36:05.294Z,102148.41
2019-04-23T16:38:40.729Z,102146.86
2019-04-23T16:41:03.918Z,102150.97
2019-04-23T16:43:40.894Z,102153.31
2019-04-23T16:46:13.048Z,102156.53
2019-04-23T16:48:51.387Z,102155.62
2019-04-23T16:53:44.472Z,102156.28
2019-04-23T16:58:59.922Z,102156.79
2019-04-23T17:01:21.008Z,102152.09
2019-04-23T17:04:05.028Z,102156.58
2019-04-23T17:06:29.297Z,102152.37
2019-04-23T17:11:34.366Z,102148.23
2019-04-23T17:14:09.745Z,102155.22
2019-04-23T17:21:47.545Z,102162.04
2019-04-23T17:24:18.839Z,102165.76
2019-04-23T17:26:46.143Z,102173.03
2019-04-23T17:29:21.353Z,102175.30
2019-04-23T17:31:54.244Z,102176.73
2019-04-23T17:34:35.008Z,102174.52
2019-04-23T17:37:17.986Z,102172.73
2019-04-23T17:40:09.737Z,102169.80
2019-04-23T17:42:45.133Z,102182.99
2019-04-23T17:45:30.844Z,102182.72
2019-04-23T17:48:11.819Z,102186.13
2019-04-23T17:53:29.803Z,102196.67
2019-04-23T17:58:25.429Z,102206.68
2019-04-23T18:01:02.552Z,102205.84
2019-04-23T18:03:30.729Z,102197.01
2019-04-23T18:06:14.289Z,102197.47
2019-04-23T18:08:33.213Z,102201.87
2019-04-23T18:11:14.393Z,102200.28
2019-04-23T18:18:59.172Z,102206.09
2019-04-23T18:21:36.496Z,102203.27
2019-04-23T18:24:23.091Z,102208.94
2019-04-23T18:27:01.222Z,102209.52
2019-04-23T18:29:43.845Z,102204.91
2019-04-23T18:32:15.112Z,102209.92
2019-04-23T18:35:02.130Z,102211.16
2019-04-23T18:37:16.673Z,102216.66
2019-04-23T18:39:48.628Z,102218.11
2019-04-23T18:42:29.440Z,102215.30
2019-04-23T18:47:32.359Z,102212.06
2019-04-23T18:49:59.836Z,102210.17
2019-04-23T18:52:41.216Z,102215.95
2019-04-23T18:55:09.404Z,102213.14
2019-04-23T18:57:27.850Z,102213.72
2019-04-23T19:00:07.544Z,102207.45
2019-04-23T19:08:20.944Z,102217.10
2019-04-23T19:10:36.042Z,102212.16
2019-04-23T19:13:32.908Z,102216.08
2019-04-23T19:16:03.854Z,102210.73
2019-04-23T19:18:26.121Z,102209.89
2019-04-23T19:23:47.627Z,102210.33
2019-04-23T19:26:02.183Z,102209.30
2019-04-23T19:34:02.970Z,102205.47
2019-04-23T19:36:47.602Z,102208.46
2019-04-23T19:39:11.841Z,102202.30
2019-04-23T19:41:54.077Z,102206.22
2019-04-23T19:44:08.663Z,102210.55
2019-04-23T19:49:19.806Z,102209.58
2019-04-23T19:51:52.380Z,102215.80
2019-04-23T19:54:32.336Z,102208.81
2019-04-23T19:56:58.286Z,102221.19
2019-04-23T19:59:32.316Z,102220.39
2019-04-23T20:02:03.274Z,102214.53
2019-04-23T20:04:39.248Z,102209.77
2019-04-23T20:12:05.857Z,102219.62
2019-04-23T20:17:34.097Z,102223.23
2019-04-23T20:22:26.978Z,102226.61
2019-04-23T20:27:45.222Z,102236.87
2019-04-23T20:30:29.045Z,102235.09
2019-04-23T20:35:16.651Z,102230.74
2019-04-23T20:38:19.246Z,102232.66
2019-04-23T20:40:25.879Z,102234.70
2019-04-23T20:45:20.123Z,102234.84
2019-04-23T20:50:26.218Z,102238.55
2019-04-23T20:52:57.468Z,102237.28
2019-04-23T20:55:47.529Z,102244.83
2019-04-23T20:58:21.277Z,102236.67
2019-04-23T21:01:07.270Z,102237.66
2019-04-23T21:06:08.763Z,102243.10
2019-04-23T21:09:03.913Z,102235.67
2019-04-23T21:11:05.199Z,102244.72
2019-04-23T21:18:48.356Z,102249.38
2019-04-23T21:26:31.224Z,102260.31
2019-04-23T21:31:48.019Z,102259.20
2019-04-23T21:34:17.764Z,102257.93
2019-04-23T21:36:46.124Z,102252.59
2019-04-23T21:42:41.136Z,102257.11
2019-04-23T21:44:18.619Z,102253.17
2019-04-23T21:46:55.422Z,102251.95
2019-04-23T21:49:36.015Z,102260.95
2019-04-23T21:54:41.221Z,102258.36
2019-04-23T21:57:08.803Z,102259.74
2019-04-23T21:59:41.450Z,102254.92
2019-04-23T22:02:13.512Z,102256.20
2019-04-23T22:04:49.938Z,102260.20
2019-04-23T22:07:19.403Z,102256.77
2019-04-23T22:09:51.857Z,102252.00
2019-04-23T22:12:23.135Z,102257.84
2019-04-23T22:14:53.637Z,102264.55
2019-04-23T22:20:09.489Z,102268.48
2019-04-23T22:22:44.217Z,102267.47
2019-04-23T22:25:13.455Z,102271.66
2019-04-23T22:27:41.202Z,102274.01
2019-04-23T22:30:04.767Z,102271.85
2019-04-23T22:32:50.351Z,102266.12
2019-04-23T22:35:10.822Z,102274.23
2019-04-23T22:37:52.049Z,102273.00
2019-04-23T22:40:18.486Z,102273.55
2019-04-23T22:47:59.860Z,102272.91
2019-04-23T22:50:52.644Z,102272.99
2019-04-23T22:53:02.009Z,102273.53
2019-04-23T22:55:32.707Z,102270.87
2019-04-23T22:58:08.062Z,102270.87
2019-04-23T23:00:34.710Z,102271.41
2019-04-23T23:03:29.145Z,102271.45
2019-04-23T23:08:20.427Z,102268.91
2019-04-23T23:10:57.503Z,102270.31
2019-04-23T23:18:35.819Z,102272.98
2019-04-23T23:21:05.534Z,102273.58
2019-04-23T23:23:40.880Z,102281.73
2019-04-23T23:28:40.990Z,102281.48
2019-04-23T23:31:10.135Z,102284.14
2019-04-23T23:33:48.656Z,102277.36
2019-04-23T23:39:00.013Z,102280.61
2019-04-23T23:41:40.462Z,102289.16
2019-04-23T23:44:20.787Z,102287.86
2019-04-23T23:46:37.851Z,102285.62
2019-04-23T23:49:03.196Z,102298.09
2019-04-23T23:51:54.007Z,102295.95
2019-04-23T23:56:40.094Z,102294.20
2019-04-23T23:59:26.365Z,102296.43
